createdAt,value
2019-01-11T00:01:42.614Z,2.20
2019-01-11T00:04:47.708Z,2.20
2019-01-11T00:07:52.794Z,2.30
2019-01-11T00:10:57.831Z,2.30
2019-01-11T00:14:02.870Z,2.30
2019-01-11T00:17:07.966Z,2.30
2019-01-11T00:20:13.052Z,2.30
2019-01-11T00:23:18.172Z,2.30
2019-01-11T00:26:23.210Z,2.30
2019-01-11T00:29:28.298Z,2.30
2019-01-11T00:32:33.470Z,2.30
2019-01-11T00:35:38.550Z,2.20
2019-01-11T00:38:43.492Z,2.30
2019-01-11T00:41:48.579Z,2.30
2019-01-11T00:44:53.536Z,2.30
2019-01-11T00:47:58.474Z,2.20
2019-01-11T00:51:03.587Z,2.10
2019-01-11T00:54:08.592Z,2.10
2019-01-11T00:57:13.674Z,2.10
2019-01-11T01:00:20.442Z,2.10
2019-01-11T01:03:25.613Z,2.00
2019-01-11T01:06:30.711Z,1.90
2019-01-11T01:09:35.827Z,2.00
2019-01-11T01:12:40.928Z,2.00
2019-01-11T01:15:45.959Z,2.00
2019-01-11T01:18:51.066Z,2.00
2019-01-11T01:21:56.155Z,2.00
2019-01-11T01:25:01.271Z,2.00
2019-01-11T01:28:06.372Z,2.10
2019-01-11T01:31:11.491Z,2.00
2019-01-11T01:34:16.595Z,2.00
2019-01-11T01:37:21.635Z,2.00
2019-01-11T01:40:26.754Z,2.00
2019-01-11T01:43:31.838Z,2.00
2019-01-11T01:46:36.890Z,2.00
2019-01-11T01:49:41.827Z,2.00
2019-01-11T01:52:46.936Z,2.00
2019-01-11T01:55:51.879Z,2.10
2019-01-11T01:58:56.989Z,2.10
2019-01-11T02:02:02.079Z,2.20
2019-01-11T02:05:08.257Z,2.20
2019-01-11T02:08:13.374Z,2.10
2019-01-11T02:11:18.543Z,2.20
2019-01-11T02:14:23.645Z,2.20
2019-01-11T02:17:28.688Z,2.20
2019-01-11T02:20:33.811Z,2.20
2019-01-11T02:23:38.923Z,2.30
2019-01-11T02:26:43.935Z,2.30
2019-01-11T02:29:48.899Z,2.40
2019-01-11T02:32:53.908Z,2.40
2019-01-11T02:35:58.864Z,2.30
2019-01-11T02:39:05.240Z,2.30
2019-01-11T02:42:10.322Z,2.30
2019-01-11T02:45:17.704Z,2.30
2019-01-11T02:48:22.806Z,2.30
2019-01-11T02:51:27.839Z,2.30
2019-01-11T02:54:32.799Z,2.30
2019-01-11T02:57:37.898Z,2.30
2019-01-11T03:00:42.944Z,2.40
2019-01-11T03:03:47.969Z,2.30
2019-01-11T03:06:53.000Z,2.30
2019-01-11T03:09:58.029Z,2.30
2019-01-11T03:13:03.118Z,2.30
2019-01-11T03:16:08.227Z,2.30
2019-01-11T03:19:13.396Z,2.20
2019-01-11T03:22:18.496Z,2.20
2019-01-11T03:25:23.590Z,2.30
2019-01-11T03:28:28.563Z,2.30
2019-01-11T03:31:36.369Z,2.30
2019-01-11T03:34:57.441Z,2.30
2019-01-11T03:38:02.507Z,2.30
2019-01-11T03:41:07.712Z,2.30
2019-01-11T03:44:12.839Z,2.20
2019-01-11T03:47:17.949Z,2.30
2019-01-11T03:50:23.748Z,2.20
2019-01-11T03:53:28.789Z,2.30
2019-01-11T03:56:33.808Z,2.30
2019-01-11T03:59:38.911Z,2.30
2019-01-11T04:02:45.019Z,2.30
2019-01-11T04:05:50.605Z,2.20
2019-01-11T04:08:55.740Z,2.20
2019-01-11T04:12:00.830Z,2.20
2019-01-11T04:15:06.670Z,2.30
2019-01-11T04:18:25.711Z,2.20
2019-01-11T04:21:30.847Z,2.20
2019-01-11T04:24:49.856Z,2.10
2019-01-11T04:27:55.071Z,2.00
2019-01-11T04:31:00.104Z,1.90
2019-01-11T04:34:05.194Z,1.90
2019-01-11T04:37:10.218Z,1.90
2019-01-11T04:40:17.242Z,1.90
2019-01-11T04:43:22.347Z,1.80
2019-01-11T04:46:27.312Z,1.80
2019-01-11T04:49:32.360Z,1.80
2019-01-11T04:52:37.495Z,1.90
2019-01-11T04:55:42.597Z,1.90
2019-01-11T04:58:47.566Z,2.00
2019-01-11T05:01:52.675Z,2.00
2019-01-11T05:04:57.767Z,2.00
2019-01-11T05:08:02.863Z,2.00
2019-01-11T05:11:07.980Z,2.00
2019-01-11T05:14:12.988Z,2.00
2019-01-11T05:17:18.084Z,2.10
2019-01-11T05:20:23.167Z,2.10
2019-01-11T05:23:28.266Z,2.20
2019-01-11T05:26:33.324Z,2.20
2019-01-11T05:29:38.283Z,2.10
2019-01-11T05:32:43.387Z,2.10
2019-01-11T05:35:48.547Z,2.00
2019-01-11T05:38:54.264Z,1.90
2019-01-11T05:41:59.716Z,1.90
2019-01-11T05:45:05.695Z,1.80
2019-01-11T05:48:10.894Z,1.80
2019-01-11T05:51:16.364Z,1.80
2019-01-11T05:54:22.467Z,1.80
2019-01-11T05:57:27.518Z,1.80
2019-01-11T06:00:32.536Z,1.80
2019-01-11T06:03:37.652Z,1.80
2019-01-11T06:07:00.159Z,1.80
2019-01-11T06:10:06.648Z,1.70
2019-01-11T06:13:11.758Z,1.70
2019-01-11T06:16:16.771Z,1.70
2019-01-11T06:19:22.103Z,1.70
2019-01-11T06:22:27.275Z,1.70
2019-01-11T06:25:32.361Z,1.70
2019-01-11T06:28:37.484Z,1.60
2019-01-11T06:31:42.499Z,1.60
2019-01-11T06:34:47.623Z,1.60
2019-01-11T06:37:52.634Z,1.60
2019-01-11T06:40:57.807Z,1.60
2019-01-11T06:44:02.934Z,1.60
2019-01-11T06:47:08.048Z,1.60
2019-01-11T06:50:13.816Z,1.60
2019-01-11T06:53:18.860Z,1.50
2019-01-11T06:56:24.009Z,1.50
2019-01-11T06:59:28.968Z,1.50
2019-01-11T07:02:34.675Z,1.50
2019-01-11T07:05:39.695Z,1.70
2019-01-11T07:08:44.669Z,1.80
2019-01-11T07:11:49.824Z,1.80
2019-01-11T07:14:54.857Z,1.80
2019-01-11T07:18:01.210Z,1.80
2019-01-11T07:21:06.306Z,1.60
2019-01-11T07:24:11.438Z,1.50
2019-01-11T07:27:16.533Z,1.50
2019-01-11T07:30:23.451Z,1.50
2019-01-11T07:33:28.670Z,1.50
2019-01-11T07:36:35.825Z,1.50
2019-01-11T07:39:40.860Z,1.50
2019-01-11T07:42:45.948Z,1.40
2019-01-11T07:45:51.047Z,1.40
2019-01-11T07:48:56.114Z,1.40
2019-01-11T07:52:01.232Z,1.40
2019-01-11T07:55:07.036Z,1.30
2019-01-11T07:58:12.147Z,1.30
2019-01-11T08:01:17.258Z,1.30
2019-01-11T08:04:22.373Z,1.30
2019-01-11T08:07:27.488Z,1.30
2019-01-11T08:10:32.583Z,1.30
2019-01-11T08:13:37.700Z,1.30
2019-01-11T08:16:42.798Z,1.40
2019-01-11T08:19:47.825Z,1.40
2019-01-11T08:22:52.865Z,1.50
2019-01-11T08:25:57.886Z,1.50
2019-01-11T08:29:03.014Z,1.50
2019-01-11T08:32:08.131Z,1.50
2019-01-11T08:35:13.579Z,1.50
2019-01-11T08:38:18.600Z,1.50
2019-01-11T08:41:23.643Z,1.50
2019-01-11T08:44:28.738Z,1.60
2019-01-11T08:47:34.043Z,1.60
2019-01-11T08:50:39.239Z,1.70
2019-01-11T08:53:44.352Z,1.70
2019-01-11T08:56:49.387Z,1.70
2019-01-11T08:59:54.444Z,1.70
2019-01-11T09:02:59.395Z,1.80
2019-01-11T09:06:04.723Z,1.80
2019-01-11T09:09:09.884Z,1.80
2019-01-11T09:12:15.029Z,1.80
2019-01-11T09:15:20.154Z,1.80
2019-01-11T09:18:32.763Z,1.90
2019-01-11T09:21:41.594Z,1.90
2019-01-11T09:24:44.591Z,1.90
2019-01-11T09:27:49.791Z,1.90
2019-01-11T09:30:54.826Z,1.90
2019-01-11T09:33:59.942Z,1.90
2019-01-11T09:37:05.139Z,2.00
2019-01-11T09:40:10.563Z,2.00
2019-01-11T09:43:15.679Z,2.00
2019-01-11T09:46:20.712Z,2.10
2019-01-11T09:49:25.759Z,2.20
2019-01-11T09:52:30.955Z,2.30
2019-01-11T09:55:36.011Z,2.30
2019-01-11T09:58:41.061Z,2.40
2019-01-11T10:01:47.755Z,2.40
2019-01-11T10:04:52.851Z,2.40
2019-01-11T10:07:57.944Z,2.30
2019-01-11T10:11:03.075Z,2.30
2019-01-11T10:14:08.211Z,2.30
2019-01-11T10:17:13.315Z,2.30
2019-01-11T10:20:18.427Z,2.30
2019-01-11T10:23:23.545Z,2.30
2019-01-11T10:26:28.619Z,2.40
2019-01-11T10:29:33.674Z,2.40
2019-01-11T10:32:38.624Z,2.40
2019-01-11T10:35:43.780Z,2.50
2019-01-11T10:38:48.808Z,2.40
2019-01-11T10:41:53.939Z,2.40
2019-01-11T10:44:58.903Z,2.40
2019-01-11T10:48:04.427Z,2.40
2019-01-11T10:51:09.467Z,2.50
2019-01-11T10:54:24.327Z,2.50
2019-01-11T10:57:29.430Z,2.60
2019-01-11T11:00:35.522Z,2.60
2019-01-11T11:03:40.719Z,2.60
2019-01-11T11:06:45.852Z,2.60
2019-01-11T11:09:50.986Z,2.60
2019-01-11T11:12:56.003Z,2.60
2019-01-11T11:16:00.973Z,2.70
2019-01-11T11:19:06.160Z,2.70
2019-01-11T11:22:11.465Z,2.60
2019-01-11T11:25:20.878Z,2.60
2019-01-11T11:28:26.013Z,2.70
2019-01-11T11:31:31.067Z,2.60
2019-01-11T11:34:37.653Z,2.60
2019-01-11T11:37:42.785Z,2.60
2019-01-11T11:40:47.887Z,2.60
2019-01-11T11:43:52.862Z,2.60
2019-01-11T11:46:57.903Z,2.60
2019-01-11T11:50:03.013Z,2.60
2019-01-11T11:53:08.128Z,2.60
2019-01-11T11:56:13.236Z,2.70
2019-01-11T11:59:18.199Z,2.80
2019-01-11T12:02:23.302Z,2.80
2019-01-11T12:05:28.428Z,2.90
2019-01-11T12:08:33.536Z,3.00
2019-01-11T12:11:38.976Z,2.90
2019-01-11T12:14:44.019Z,2.90
2019-01-11T12:17:49.068Z,2.90
2019-01-11T12:20:54.188Z,2.80
2019-01-11T12:23:59.304Z,2.80
2019-01-11T12:27:04.434Z,2.70
2019-01-11T12:30:11.031Z,2.80
2019-01-11T12:33:16.143Z,2.80
2019-01-11T12:36:21.240Z,2.90
2019-01-11T12:39:26.343Z,2.90
2019-01-11T12:42:31.447Z,2.90
2019-01-11T12:45:36.578Z,2.90
2019-01-11T12:48:41.716Z,2.90
2019-01-11T12:51:46.763Z,2.90
2019-01-11T12:54:51.799Z,2.90
2019-01-11T12:57:56.752Z,2.80
2019-01-11T13:01:01.984Z,2.80
2019-01-11T13:04:07.091Z,2.80
2019-01-11T13:07:12.131Z,2.70
2019-01-11T13:10:18.395Z,2.60
2019-01-11T13:13:23.448Z,2.50
2019-01-11T13:16:28.491Z,2.50
2019-01-11T13:19:33.522Z,2.40
2019-01-11T13:22:38.655Z,2.40
2019-01-11T13:25:43.844Z,2.40
2019-01-11T13:28:48.956Z,2.40
2019-01-11T13:31:54.003Z,2.40
2019-01-11T13:34:59.118Z,2.40
2019-01-11T13:38:04.163Z,2.40
2019-01-11T13:41:09.279Z,2.50
2019-01-11T13:44:14.391Z,2.50
2019-01-11T13:47:19.500Z,2.60
2019-01-11T13:50:49.580Z,2.60
2019-01-11T13:53:54.619Z,2.60
2019-01-11T13:56:59.736Z,2.60
2019-01-11T14:00:07.139Z,2.60
2019-01-11T14:03:12.267Z,2.70
2019-01-11T14:06:17.414Z,2.70
2019-01-11T14:09:22.523Z,2.70
2019-01-11T14:12:27.496Z,2.70
2019-01-11T14:15:33.424Z,2.70
2019-01-11T14:18:38.466Z,2.70
2019-01-11T14:21:43.571Z,2.70
2019-01-11T14:24:48.635Z,2.70
2019-01-11T14:27:53.747Z,2.60
2019-01-11T14:30:58.857Z,2.60
2019-01-11T14:34:03.979Z,2.60
2019-01-11T14:37:09.109Z,2.50
2019-01-11T14:40:14.870Z,2.60
2019-01-11T14:43:19.982Z,2.60
2019-01-11T14:46:25.034Z,2.60
2019-01-11T14:49:30.267Z,2.60
2019-01-11T14:52:35.379Z,2.50
2019-01-11T14:55:40.438Z,2.40
2019-01-11T14:58:45.403Z,2.40
2019-01-11T15:01:50.438Z,2.30
2019-01-11T15:04:55.489Z,2.30
2019-01-11T15:08:00.511Z,2.30
2019-01-11T15:11:05.655Z,2.30
2019-01-11T15:14:10.993Z,2.20
2019-01-11T15:17:16.196Z,2.20
2019-01-11T15:20:21.307Z,2.20
2019-01-11T15:23:26.448Z,2.20
2019-01-11T15:26:31.496Z,2.20
2019-01-11T15:29:36.463Z,2.10
2019-01-11T15:32:41.515Z,2.10
2019-01-11T15:35:46.623Z,2.10
2019-01-11T15:38:51.658Z,2.00
2019-01-11T15:41:56.716Z,2.00
2019-01-11T15:45:01.815Z,2.00
2019-01-11T15:48:07.025Z,2.00
2019-01-11T15:51:12.155Z,2.00
2019-01-11T15:54:17.202Z,2.00
2019-01-11T15:57:41.948Z,2.00
2019-01-11T16:00:48.480Z,2.00
2019-01-11T16:03:53.710Z,1.90
2019-01-11T16:06:58.887Z,1.90
2019-01-11T16:10:10.847Z,1.80
2019-01-11T16:13:42.152Z,1.90
2019-01-11T16:16:59.788Z,2.00
2019-01-11T16:20:07.853Z,2.00
2019-01-11T16:23:12.976Z,2.00
2019-01-11T16:26:18.103Z,2.10
2019-01-11T16:29:23.139Z,2.10
2019-01-11T16:32:28.255Z,2.20
2019-01-11T16:35:33.319Z,2.20
2019-01-11T16:38:38.439Z,2.20
2019-01-11T16:41:43.527Z,2.20
2019-01-11T16:44:48.584Z,2.20
2019-01-11T16:47:53.635Z,2.30
2019-01-11T16:50:58.786Z,2.30
2019-01-11T16:54:03.914Z,2.30
2019-01-11T16:57:08.967Z,2.30
2019-01-11T17:00:16.444Z,2.30
2019-01-11T17:03:21.475Z,2.30
2019-01-11T17:06:26.614Z,2.30
2019-01-11T17:09:31.651Z,2.20
2019-01-11T17:12:41.759Z,2.30
2019-01-11T17:15:43.684Z,2.30
2019-01-11T17:18:48.782Z,2.30
2019-01-11T17:21:53.906Z,2.20
2019-01-11T17:24:58.867Z,2.30
2019-01-11T17:28:03.973Z,2.30
2019-01-11T17:31:09.016Z,2.30
2019-01-11T17:34:14.055Z,2.30
2019-01-11T17:37:19.576Z,2.40
2019-01-11T17:40:24.808Z,2.40
2019-01-11T17:43:30.050Z,2.40
2019-01-11T17:46:35.694Z,2.40
2019-01-11T17:49:41.684Z,2.40
2019-01-11T17:52:47.435Z,2.40
2019-01-11T17:55:52.631Z,2.40
2019-01-11T17:58:57.792Z,2.40
2019-01-11T18:02:02.984Z,2.50
2019-01-11T18:05:09.344Z,2.60
2019-01-11T18:08:14.464Z,2.60
2019-01-11T18:11:19.525Z,2.60
2019-01-11T18:14:24.572Z,2.60
2019-01-11T18:17:29.627Z,2.60
2019-01-11T18:20:36.066Z,2.60
2019-01-11T18:23:41.419Z,2.70
2019-01-11T18:26:46.423Z,2.70
2019-01-11T18:29:51.458Z,2.70
2019-01-11T18:32:56.423Z,2.70
2019-01-11T18:36:01.538Z,2.70
2019-01-11T18:39:08.699Z,2.70
2019-01-11T18:42:13.804Z,2.70
2019-01-11T18:45:19.323Z,2.70
2019-01-11T18:48:24.577Z,2.70
2019-01-11T18:51:29.611Z,2.80
2019-01-11T18:54:34.929Z,2.80
2019-01-11T18:57:40.058Z,2.80
2019-01-11T19:00:45.347Z,2.90
2019-01-11T19:03:51.073Z,2.90
2019-01-11T19:06:56.218Z,3.00
2019-01-11T19:10:01.219Z,3.00
2019-01-11T19:13:06.334Z,2.90
2019-01-11T19:16:12.714Z,2.90
2019-01-11T19:19:17.843Z,2.90
2019-01-11T19:22:23.064Z,2.90
2019-01-11T19:25:28.231Z,3.00
2019-01-11T19:28:33.267Z,3.00
2019-01-11T19:31:38.315Z,3.10
2019-01-11T19:34:43.443Z,3.10
2019-01-11T19:37:48.623Z,3.10
2019-01-11T19:40:53.672Z,3.10
2019-01-11T19:43:58.789Z,3.00
2019-01-11T19:47:04.181Z,3.00
2019-01-11T19:50:20.161Z,2.90
2019-01-11T19:53:27.625Z,2.90
2019-01-11T19:56:33.119Z,2.90
2019-01-11T19:59:38.228Z,2.90
2019-01-11T20:02:43.525Z,3.00
2019-01-11T20:05:48.785Z,2.90
2019-01-11T20:08:54.134Z,2.90
2019-01-11T20:12:00.933Z,2.80
2019-01-11T20:15:07.206Z,2.70
2019-01-11T20:18:12.730Z,2.70
2019-01-11T20:21:17.815Z,2.60
2019-01-11T20:24:23.005Z,2.60
2019-01-11T20:27:28.191Z,2.60
2019-01-11T20:30:33.411Z,2.60
2019-01-11T20:33:38.539Z,2.60
2019-01-11T20:36:56.435Z,2.60
2019-01-11T20:40:01.623Z,2.70
2019-01-11T20:43:07.093Z,2.70
2019-01-11T20:46:12.217Z,2.70
2019-01-11T20:49:17.359Z,2.70
2019-01-11T20:52:22.484Z,2.70
2019-01-11T20:55:27.589Z,2.70
2019-01-11T20:58:32.731Z,2.80
2019-01-11T21:01:37.774Z,2.80
2019-01-11T21:04:42.759Z,2.90
2019-01-11T21:07:47.872Z,2.90
2019-01-11T21:10:52.968Z,2.90
2019-01-11T21:13:58.122Z,2.90
2019-01-11T21:17:03.313Z,2.90
2019-01-11T21:20:10.732Z,3.00
2019-01-11T21:23:15.871Z,3.00
2019-01-11T21:26:21.056Z,3.00
2019-01-11T21:29:26.177Z,3.00
2019-01-11T21:32:31.321Z,3.10
2019-01-11T21:35:36.444Z,3.10
2019-01-11T21:38:41.498Z,3.10
2019-01-11T21:41:46.626Z,3.10
2019-01-11T21:44:52.432Z,3.10
2019-01-11T21:47:57.548Z,3.10
2019-01-11T21:51:02.671Z,3.00
2019-01-11T21:54:08.184Z,3.00
2019-01-11T21:57:13.343Z,2.90
2019-01-11T22:00:23.927Z,2.90
2019-01-11T22:03:29.160Z,2.80
2019-01-11T22:06:34.410Z,2.80
2019-01-11T22:09:40.212Z,2.70
2019-01-11T22:12:45.671Z,2.70
2019-01-11T22:15:51.577Z,2.70
2019-01-11T22:18:56.639Z,2.70
2019-01-11T22:22:01.770Z,2.70
2019-01-11T22:25:07.538Z,2.70
2019-01-11T22:28:12.659Z,2.70
2019-01-11T22:31:17.695Z,2.70
2019-01-11T22:34:22.863Z,2.70
2019-01-11T22:37:27.967Z,2.70
2019-01-11T22:40:32.991Z,2.70
2019-01-11T22:43:38.150Z,2.70
2019-01-11T22:46:43.135Z,2.60
2019-01-11T22:49:48.261Z,2.60
2019-01-11T22:52:53.452Z,2.60
2019-01-11T22:55:58.580Z,2.60
2019-01-11T22:59:03.768Z,2.60
2019-01-11T23:02:24.500Z,2.60
2019-01-11T23:05:29.527Z,2.60
2019-01-11T23:08:34.988Z,2.60
2019-01-11T23:12:14.819Z,2.60
2019-01-11T23:15:28.219Z,2.70
2019-01-11T23:18:34.087Z,2.70
2019-01-11T23:21:39.399Z,2.70
2019-01-11T23:24:44.460Z,2.80
2019-01-11T23:27:49.594Z,2.80
2019-01-11T23:30:54.621Z,2.80
2019-01-11T23:33:59.737Z,2.80
2019-01-11T23:37:04.851Z,2.80
2019-01-11T23:40:12.099Z,2.80
2019-01-11T23:43:17.247Z,2.80
2019-01-11T23:46:22.358Z,2.90
2019-01-11T23:49:27.407Z,2.90
2019-01-11T23:52:32.518Z,2.90
2019-01-11T23:55:37.563Z,2.90
2019-01-11T23:58:42.646Z,2.90
